createdAt,value
2022-11-03T00:01:48.983Z,3.65
2022-11-03T00:04:19.307Z,4.20
2022-11-03T00:06:48.608Z,3.92
2022-11-03T00:09:17.733Z,3.75
2022-11-03T00:11:46.971Z,3.83
2022-11-03T00:14:15.553Z,3.70
2022-11-03T00:16:44.113Z,3.90
2022-11-03T00:19:13.624Z,3.63
2022-11-03T00:21:43.543Z,3.58
2022-11-03T00:24:12.107Z,4.18
2022-11-03T00:26:40.491Z,3.72
2022-11-03T00:29:09.957Z,3.92
2022-11-03T00:31:39.370Z,3.70
2022-11-03T00:34:08.309Z,4.03
2022-11-03T00:36:37.332Z,3.80
2022-11-03T00:39:07.423Z,3.22
2022-11-03T00:41:35.782Z,4.10
2022-11-03T00:44:04.208Z,3.50
2022-11-03T00:46:35.057Z,3.90
2022-11-03T00:49:03.787Z,3.65
2022-11-03T00:51:33.936Z,3.78
2022-11-03T00:54:03.066Z,3.50
2022-11-03T00:56:34.107Z,3.28
2022-11-03T00:59:03.279Z,2.95
2022-11-03T01:01:32.631Z,3.28
2022-11-03T01:04:18.649Z,3.30
2022-11-03T01:06:51.444Z,3.92
2022-11-03T01:09:19.891Z,4.07
2022-11-03T01:11:53.075Z,3.83
2022-11-03T01:14:21.990Z,4.07
2022-11-03T01:16:50.292Z,3.75
2022-11-03T01:19:18.673Z,4.00
2022-11-03T01:21:46.952Z,3.55
2022-11-03T01:24:15.314Z,4.03
2022-11-03T01:26:43.594Z,4.03
2022-11-03T01:29:13.237Z,4.07
2022-11-03T01:31:41.619Z,3.63
2022-11-03T01:34:11.598Z,4.13
2022-11-03T01:36:39.879Z,3.72
2022-11-03T01:39:08.166Z,4.15
2022-11-03T01:41:36.449Z,3.80
2022-11-03T01:44:23.595Z,3.45
2022-11-03T01:46:54.666Z,3.30
2022-11-03T01:49:27.006Z,3.40
2022-11-03T01:51:58.912Z,3.80
2022-11-03T01:54:28.971Z,4.03
2022-11-03T01:56:57.619Z,3.70
2022-11-03T01:59:26.414Z,3.10
2022-11-03T02:01:56.213Z,3.20
2022-11-03T02:04:27.720Z,3.38
2022-11-03T02:06:59.010Z,3.72
2022-11-03T02:09:27.515Z,3.60
2022-11-03T02:12:07.808Z,3.33
2022-11-03T02:14:36.925Z,3.13
2022-11-03T02:17:07.783Z,3.17
2022-11-03T02:19:39.417Z,3.88
2022-11-03T02:22:16.161Z,3.35
2022-11-03T02:24:52.976Z,3.38
2022-11-03T02:27:23.973Z,3.33
2022-11-03T02:29:52.381Z,3.40
2022-11-03T02:32:23.716Z,2.85
2022-11-03T02:34:59.293Z,3.40
2022-11-03T02:37:29.982Z,3.90
2022-11-03T02:40:00.095Z,3.53
2022-11-03T02:42:30.055Z,3.38
2022-11-03T02:49:04.737Z,3.00
2022-11-03T02:51:34.665Z,3.10
2022-11-03T02:54:05.738Z,2.95
2022-11-03T02:56:35.451Z,3.72
2022-11-03T02:59:08.490Z,3.22
2022-11-03T03:01:46.786Z,3.10
2022-11-03T03:04:19.036Z,3.35
2022-11-03T03:06:51.029Z,2.58
2022-11-03T03:09:20.819Z,3.38
2022-11-03T03:11:50.570Z,3.55
2022-11-03T03:14:21.826Z,3.28
2022-11-03T03:16:53.433Z,2.75
2022-11-03T03:19:30.647Z,2.88
2022-11-03T03:21:59.652Z,2.95
2022-11-03T03:24:32.896Z,2.92
2022-11-03T03:27:01.671Z,2.92
2022-11-03T03:29:33.327Z,3.58
2022-11-03T03:32:02.517Z,3.15
2022-11-03T03:34:35.139Z,3.58
2022-11-03T03:37:05.068Z,3.25
2022-11-03T03:39:35.597Z,3.22
2022-11-03T03:42:04.664Z,3.60
2022-11-03T03:44:35.001Z,3.25
2022-11-03T03:47:05.718Z,3.20
2022-11-03T03:49:34.008Z,3.03
2022-11-03T03:52:03.652Z,3.55
2022-11-03T03:54:31.951Z,3.40
2022-11-03T03:57:03.074Z,3.20
2022-11-03T03:59:31.482Z,3.15
2022-11-03T04:02:01.254Z,3.53
2022-11-03T04:04:29.702Z,2.95
2022-11-03T04:07:11.986Z,2.97
2022-11-03T04:09:40.277Z,3.08
2022-11-03T04:12:26.940Z,2.80
2022-11-03T04:15:12.992Z,3.08
2022-11-03T04:18:02.774Z,3.22
2022-11-03T04:20:48.931Z,3.00
2022-11-03T04:23:17.265Z,3.15
2022-11-03T04:25:47.674Z,3.17
2022-11-03T04:28:16.686Z,3.05
2022-11-03T04:30:45.096Z,3.35
2022-11-03T04:33:16.251Z,3.20
2022-11-03T04:35:45.217Z,2.67
2022-11-03T04:38:21.597Z,2.80
2022-11-03T04:40:53.716Z,3.15
2022-11-03T04:43:24.861Z,3.08
2022-11-03T04:45:53.169Z,3.38
2022-11-03T04:48:23.957Z,3.25
2022-11-03T04:50:55.201Z,2.97
2022-11-03T04:53:24.263Z,3.13
2022-11-03T04:55:54.654Z,2.60
2022-11-03T04:58:24.066Z,3.28
2022-11-03T05:00:53.512Z,3.03
2022-11-03T05:03:24.218Z,3.08
2022-11-03T05:05:52.647Z,3.00
2022-11-03T05:08:21.485Z,3.35
2022-11-03T05:10:50.873Z,2.88
2022-11-03T05:13:20.542Z,2.95
2022-11-03T05:15:49.634Z,3.38
2022-11-03T05:18:19.970Z,3.42
2022-11-03T05:20:51.610Z,3.65
2022-11-03T05:23:20.910Z,3.22
2022-11-03T05:25:51.111Z,3.30
2022-11-03T05:28:27.617Z,3.22
2022-11-03T05:30:56.993Z,3.53
2022-11-03T05:33:29.854Z,3.33
2022-11-03T05:36:02.315Z,3.88
2022-11-03T05:38:32.189Z,3.55
2022-11-03T05:41:00.518Z,3.78
2022-11-03T05:43:29.883Z,3.88
2022-11-03T05:46:00.036Z,3.58
2022-11-03T05:48:32.189Z,3.30
2022-11-03T05:51:02.272Z,3.80
2022-11-03T05:53:32.117Z,3.25
2022-11-03T05:56:05.456Z,3.90
2022-11-03T05:58:39.354Z,3.58
2022-11-03T06:01:17.855Z,3.97
2022-11-03T06:03:48.492Z,3.85
2022-11-03T06:06:31.806Z,3.22
2022-11-03T06:09:01.641Z,3.25
2022-11-03T06:11:33.370Z,3.15
2022-11-03T06:14:01.673Z,3.40
2022-11-03T06:16:39.672Z,3.38
2022-11-03T06:19:16.642Z,3.20
2022-11-03T06:21:46.753Z,3.15
2022-11-03T06:24:15.876Z,3.15
2022-11-03T06:26:45.194Z,3.97
2022-11-03T06:29:15.979Z,4.35
2022-11-03T06:31:45.468Z,3.92
2022-11-03T06:34:20.099Z,3.80
2022-11-03T06:36:49.772Z,3.80
2022-11-03T06:39:21.385Z,3.65
2022-11-03T06:41:49.705Z,4.05
2022-11-03T06:44:23.422Z,4.38
2022-11-03T06:46:51.716Z,4.22
2022-11-03T06:49:27.219Z,3.90
2022-11-03T06:51:56.942Z,4.40
2022-11-03T06:54:25.275Z,3.97
2022-11-03T06:56:53.579Z,3.65
2022-11-03T06:59:22.006Z,3.95
2022-11-03T07:01:52.566Z,4.78
2022-11-03T07:04:22.267Z,3.90
2022-11-03T07:06:53.524Z,4.22
2022-11-03T07:09:25.854Z,4.43
2022-11-03T07:11:55.090Z,4.00
2022-11-03T07:14:24.284Z,3.95
2022-11-03T07:16:54.803Z,3.78
2022-11-03T07:19:25.605Z,3.88
2022-11-03T07:21:55.553Z,3.53
2022-11-03T07:24:27.319Z,3.92
2022-11-03T07:26:59.719Z,3.70
2022-11-03T07:29:34.435Z,4.60
2022-11-03T07:32:06.056Z,4.38
2022-11-03T07:34:35.049Z,4.45
2022-11-03T07:37:03.548Z,5.20
2022-11-03T07:39:35.603Z,4.85
2022-11-03T07:42:04.707Z,6.95
2022-11-03T07:44:33.246Z,5.32
2022-11-03T07:47:01.531Z,4.65
2022-11-03T07:49:30.426Z,4.90
2022-11-03T07:52:00.742Z,5.10
2022-11-03T07:54:30.633Z,4.93
2022-11-03T07:57:01.443Z,5.10
2022-11-03T07:59:30.852Z,5.43
2022-11-03T08:02:03.411Z,5.13
2022-11-03T08:04:39.189Z,5.05
2022-11-03T08:07:10.034Z,4.57
2022-11-03T08:09:38.363Z,4.57
2022-11-03T08:12:08.385Z,4.93
2022-11-03T08:14:37.859Z,4.40
2022-11-03T08:17:06.365Z,4.13
2022-11-03T08:19:34.717Z,4.25
2022-11-03T08:22:03.018Z,4.07
2022-11-03T08:24:31.307Z,4.18
2022-11-03T08:26:59.609Z,4.45
2022-11-03T08:29:29.431Z,4.18
2022-11-03T08:31:58.020Z,3.75
2022-11-03T08:34:26.303Z,3.42
2022-11-03T08:36:54.594Z,3.90
2022-11-03T08:39:24.574Z,3.95
2022-11-03T08:41:53.216Z,3.53
2022-11-03T08:44:21.646Z,3.53
2022-11-03T08:46:51.319Z,3.22
2022-11-03T08:49:19.662Z,3.22
2022-11-03T08:51:47.982Z,3.50
2022-11-03T08:54:16.314Z,3.45
2022-11-03T08:56:46.347Z,3.40
2022-11-03T08:59:14.650Z,3.50
2022-11-03T09:01:48.761Z,3.35
2022-11-03T09:04:23.923Z,3.55
2022-11-03T09:06:52.597Z,3.13
2022-11-03T09:12:09.486Z,3.00
2022-11-03T09:18:07.876Z,2.97
2022-11-03T09:20:37.733Z,3.85
2022-11-03T09:23:06.072Z,3.33
2022-11-03T09:25:34.355Z,3.65
2022-11-03T09:28:02.650Z,3.90
2022-11-03T09:30:30.937Z,3.30
2022-11-03T09:32:59.416Z,3.15
2022-11-03T09:35:27.785Z,3.45
2022-11-03T09:37:57.543Z,3.25
2022-11-03T09:40:26.766Z,3.00
2022-11-03T09:42:55.095Z,3.30
2022-11-03T09:45:23.382Z,3.30
2022-11-03T09:47:51.727Z,3.72
2022-11-03T09:50:21.211Z,3.65
2022-11-03T09:52:51.928Z,3.35
2022-11-03T09:55:25.770Z,3.70
2022-11-03T09:57:54.524Z,3.55
2022-11-03T10:00:23.916Z,3.70
2022-11-03T10:02:52.446Z,3.10
2022-11-03T10:05:30.544Z,3.60
2022-11-03T10:08:00.291Z,3.22
2022-11-03T10:10:30.185Z,3.47
2022-11-03T10:12:58.700Z,3.05
2022-11-03T10:15:27.815Z,3.70
2022-11-03T10:17:57.027Z,3.42
2022-11-03T10:20:25.353Z,3.55
2022-11-03T10:22:54.792Z,2.88
2022-11-03T10:25:31.544Z,3.08
2022-11-03T10:28:14.854Z,3.10
2022-11-03T10:33:42.948Z,3.38
2022-11-03T10:36:24.400Z,2.80
2022-11-03T10:38:52.929Z,3.17
2022-11-03T10:41:23.426Z,2.97
2022-11-03T10:44:01.803Z,2.75
2022-11-03T10:46:51.599Z,3.17
2022-11-03T10:49:20.540Z,2.53
2022-11-03T10:51:50.407Z,2.47
2022-11-03T10:54:19.936Z,2.80
2022-11-03T10:56:50.824Z,2.88
2022-11-03T10:59:20.489Z,2.95
2022-11-03T11:01:55.808Z,2.78
2022-11-03T11:04:32.557Z,3.10
2022-11-03T11:07:04.164Z,2.47
2022-11-03T11:09:32.767Z,2.55
2022-11-03T11:12:04.304Z,2.50
2022-11-03T11:14:38.971Z,2.47
2022-11-03T11:17:07.529Z,2.35
2022-11-03T11:19:50.704Z,2.20
2022-11-03T11:22:23.830Z,2.30
2022-11-03T11:24:59.491Z,2.38
2022-11-03T11:27:46.629Z,2.30
2022-11-03T11:30:29.841Z,2.00
2022-11-03T11:33:02.504Z,2.42
2022-11-03T11:35:49.701Z,2.10
2022-11-03T11:38:36.698Z,3.53
2022-11-03T11:41:04.991Z,2.67
2022-11-03T11:43:33.246Z,2.00
2022-11-03T11:46:21.335Z,2.40
2022-11-03T11:48:52.913Z,2.47
2022-11-03T11:51:21.243Z,2.58
2022-11-03T11:54:09.983Z,2.17
2022-11-03T11:56:43.525Z,2.40
2022-11-03T11:59:22.952Z,2.17
2022-11-03T12:01:53.924Z,2.45
2022-11-03T12:04:28.109Z,2.20
2022-11-03T12:06:59.429Z,1.95
2022-11-03T12:09:29.514Z,1.98
2022-11-03T12:12:00.772Z,2.05
2022-11-03T12:14:37.269Z,1.90
2022-11-03T12:17:24.401Z,2.10
2022-11-03T12:19:54.732Z,2.00
2022-11-03T12:22:42.065Z,3.00
2022-11-03T12:25:25.259Z,3.95
2022-11-03T12:27:53.570Z,3.95
2022-11-03T12:30:22.758Z,2.53
2022-11-03T12:32:51.971Z,2.58
2022-11-03T12:35:21.632Z,4.93
2022-11-03T12:37:50.042Z,3.60
2022-11-03T12:40:18.546Z,3.90
2022-11-03T12:42:46.878Z,9.98
2022-11-03T12:45:15.231Z,12.98
2022-11-03T12:47:43.547Z,5.53
2022-11-03T12:50:11.864Z,2.58
2022-11-03T12:52:41.545Z,2.17
2022-11-03T12:55:10.176Z,2.15
2022-11-03T12:57:38.474Z,2.10
2022-11-03T13:00:07.368Z,2.47
2022-11-03T13:02:38.166Z,2.10
2022-11-03T13:05:07.691Z,3.92
2022-11-03T13:07:36.055Z,2.63
2022-11-03T13:10:05.884Z,2.30
2022-11-03T13:12:33.751Z,2.45
2022-11-03T13:15:02.782Z,2.25
2022-11-03T13:17:40.355Z,1.98
2022-11-03T13:20:19.573Z,1.80
2022-11-03T13:22:48.049Z,2.50
2022-11-03T13:25:18.719Z,2.30
2022-11-03T13:27:48.884Z,2.08
2022-11-03T13:30:17.269Z,2.20
2022-11-03T13:32:45.779Z,2.33
2022-11-03T13:35:14.322Z,2.30
2022-11-03T13:37:42.730Z,1.95
2022-11-03T13:40:29.402Z,2.30
2022-11-03T13:43:01.798Z,2.00
2022-11-03T13:45:31.253Z,1.70
2022-11-03T13:50:50.718Z,2.58
2022-11-03T13:56:10.231Z,2.42
2022-11-03T14:01:31.707Z,2.38
2022-11-03T14:06:49.234Z,2.63
2022-11-03T14:09:18.530Z,2.50
2022-11-03T14:12:13.686Z,2.47
2022-11-03T14:14:43.756Z,2.53
2022-11-03T14:17:12.223Z,2.67
2022-11-03T14:19:45.052Z,3.53
2022-11-03T14:22:15.737Z,3.00
2022-11-03T14:24:44.350Z,3.05
2022-11-03T14:27:13.029Z,3.88
2022-11-03T14:29:43.468Z,2.42
2022-11-03T14:32:11.863Z,2.60
2022-11-03T14:34:40.310Z,2.60
2022-11-03T14:37:09.218Z,3.03
2022-11-03T14:39:37.960Z,2.80
2022-11-03T14:42:06.395Z,3.00
2022-11-03T14:44:35.449Z,2.88
2022-11-03T14:47:05.778Z,3.20
2022-11-03T14:49:34.827Z,3.28
2022-11-03T14:52:03.639Z,5.45
2022-11-03T14:54:32.443Z,9.32
2022-11-03T14:57:00.750Z,4.15
2022-11-03T14:59:29.280Z,3.53
2022-11-03T15:02:22.836Z,2.67
2022-11-03T15:04:53.136Z,2.75
2022-11-03T15:07:26.684Z,2.70
2022-11-03T15:09:54.990Z,3.50
2022-11-03T15:12:23.291Z,2.92
2022-11-03T15:14:51.817Z,3.05
2022-11-03T15:19:00.988Z,3.50
2022-11-03T15:21:29.617Z,3.05
2022-11-03T15:26:46.401Z,3.50
2022-11-03T15:29:14.705Z,3.45
2022-11-03T15:31:47.529Z,2.95
2022-11-03T15:34:18.035Z,3.10
2022-11-03T15:36:46.365Z,3.13
2022-11-03T15:39:14.644Z,2.63
2022-11-03T15:41:43.003Z,3.03
2022-11-03T15:44:11.337Z,3.20
2022-11-03T15:46:39.672Z,3.38
2022-11-03T15:49:07.947Z,2.67
2022-11-03T15:51:37.588Z,2.63
2022-11-03T15:54:05.972Z,2.70
2022-11-03T15:56:34.464Z,2.50
2022-11-03T15:59:02.893Z,2.83
2022-11-03T16:01:33.267Z,2.65
2022-11-03T16:04:02.645Z,2.38
2022-11-03T16:09:20.938Z,2.97
2022-11-03T16:11:49.324Z,2.90
2022-11-03T16:14:17.673Z,6.75
2022-11-03T16:16:46.154Z,4.45
2022-11-03T16:19:14.426Z,3.80
2022-11-03T16:21:42.777Z,4.05
2022-11-03T16:24:12.282Z,2.70
2022-11-03T16:26:43.290Z,6.55
2022-11-03T16:29:11.641Z,5.85
2022-11-03T16:31:40.048Z,3.70
2022-11-03T16:34:08.340Z,3.05
2022-11-03T16:36:37.236Z,12.13
2022-11-03T16:39:05.693Z,4.30
2022-11-03T16:41:33.991Z,11.82
2022-11-03T16:44:03.726Z,10.13
2022-11-03T16:46:32.011Z,9.48
2022-11-03T16:51:33.615Z,6.13
2022-11-03T16:54:01.932Z,11.65
2022-11-03T16:56:30.224Z,10.15
2022-11-03T16:58:58.687Z,6.50
2022-11-03T17:01:28.473Z,3.47
2022-11-03T17:03:56.938Z,3.55
2022-11-03T17:06:25.346Z,7.18
2022-11-03T17:08:53.975Z,20.50
2022-11-03T17:11:36.562Z,5.55
2022-11-03T17:14:13.192Z,3.70
2022-11-03T17:16:45.407Z,4.32
2022-11-03T17:19:13.918Z,4.55
2022-11-03T17:21:42.408Z,4.53
2022-11-03T17:24:11.202Z,4.57
2022-11-03T17:26:51.193Z,4.78
2022-11-03T17:29:25.043Z,4.57
2022-11-03T17:31:56.173Z,3.80
2022-11-03T17:34:25.686Z,4.45
2022-11-03T17:36:54.662Z,4.80
2022-11-03T17:41:55.547Z,4.85
2022-11-03T17:44:23.864Z,4.80
2022-11-03T17:46:52.316Z,3.97
2022-11-03T17:49:22.143Z,4.00
2022-11-03T17:51:50.477Z,5.95
2022-11-03T17:54:18.812Z,5.88
2022-11-03T17:56:47.434Z,4.70
2022-11-03T17:59:45.978Z,4.47
2022-11-03T18:02:17.451Z,3.50
2022-11-03T18:04:47.794Z,4.07
2022-11-03T18:07:21.449Z,3.22
2022-11-03T18:09:50.314Z,4.00
2022-11-03T18:12:37.196Z,4.18
2022-11-03T18:15:07.069Z,3.90
2022-11-03T18:17:35.533Z,4.38
2022-11-03T18:20:05.564Z,4.80
2022-11-03T18:22:34.165Z,4.80
2022-11-03T18:25:02.701Z,5.07
2022-11-03T18:27:31.156Z,3.92
2022-11-03T18:29:59.475Z,4.35
2022-11-03T18:32:31.820Z,4.05
2022-11-03T18:35:05.899Z,4.40
2022-11-03T18:37:34.646Z,3.60
2022-11-03T18:40:04.517Z,3.90
2022-11-03T18:42:33.015Z,4.45
2022-11-03T18:45:03.083Z,4.70
2022-11-03T18:47:31.640Z,5.20
2022-11-03T18:49:59.932Z,3.78
2022-11-03T18:52:29.651Z,4.05
2022-11-03T18:54:58.035Z,4.53
2022-11-03T18:57:27.115Z,7.30
2022-11-03T18:59:55.529Z,5.95
2022-11-03T19:02:25.852Z,4.75
2022-11-03T19:04:54.534Z,4.13
2022-11-03T19:07:24.699Z,4.82
2022-11-03T19:09:54.434Z,4.00
2022-11-03T19:12:22.794Z,5.07
2022-11-03T19:14:52.099Z,4.97
2022-11-03T19:17:23.443Z,4.57
2022-11-03T19:19:52.875Z,5.05
2022-11-03T19:22:22.037Z,4.45
2022-11-03T19:24:50.354Z,4.15
2022-11-03T19:27:22.061Z,4.15
2022-11-03T19:29:50.554Z,4.75
2022-11-03T19:32:21.237Z,5.20
2022-11-03T19:34:51.376Z,4.72
2022-11-03T19:37:19.662Z,4.70
2022-11-03T19:39:48.585Z,5.45
2022-11-03T19:42:29.198Z,4.45
2022-11-03T19:44:59.285Z,5.43
2022-11-03T19:47:31.658Z,6.00
2022-11-03T19:50:02.202Z,5.55
2022-11-03T19:52:31.592Z,7.43
2022-11-03T19:55:02.540Z,6.35
2022-11-03T19:57:30.881Z,8.25
2022-11-03T20:00:00.660Z,8.32
2022-11-03T20:02:29.472Z,9.75
2022-11-03T20:04:57.910Z,8.65
2022-11-03T20:07:31.501Z,9.88
2022-11-03T20:10:01.237Z,12.57
2022-11-03T20:12:30.652Z,13.70
2022-11-03T20:15:00.510Z,10.75
2022-11-03T20:17:28.899Z,18.27
2022-11-03T20:19:57.313Z,11.63
2022-11-03T20:22:29.177Z,13.50
2022-11-03T20:24:58.935Z,11.05
2022-11-03T20:27:27.396Z,13.00
2022-11-03T20:29:55.963Z,20.48
2022-11-03T20:32:25.598Z,11.15
2022-11-03T20:34:53.949Z,9.18
2022-11-03T20:37:22.490Z,7.35
2022-11-03T20:39:50.958Z,6.72
2022-11-03T20:42:21.158Z,7.63
2022-11-03T20:44:49.795Z,6.97
2022-11-03T20:47:18.254Z,11.30
2022-11-03T20:49:48.364Z,9.23
2022-11-03T20:52:17.171Z,8.35
2022-11-03T20:54:45.590Z,10.75
2022-11-03T20:57:14.226Z,11.18
2022-11-03T20:59:42.778Z,12.55
2022-11-03T21:02:13.186Z,7.70
2022-11-03T21:04:43.123Z,8.90
2022-11-03T21:07:14.233Z,13.15
2022-11-03T21:09:42.644Z,14.02
2022-11-03T21:12:14.356Z,7.57
2022-11-03T21:14:57.297Z,9.25
2022-11-03T21:17:43.407Z,7.22
2022-11-03T21:20:12.417Z,10.77
2022-11-03T21:22:52.471Z,10.52
2022-11-03T21:25:23.141Z,10.77
2022-11-03T21:27:51.913Z,9.98
2022-11-03T21:30:20.722Z,9.18
2022-11-03T21:32:49.155Z,8.15
2022-11-03T21:35:19.009Z,6.57
2022-11-03T21:37:48.722Z,5.75
2022-11-03T21:40:17.551Z,5.47
2022-11-03T21:43:03.953Z,4.90
2022-11-03T21:45:32.530Z,5.50
2022-11-03T21:48:18.955Z,5.57
2022-11-03T21:50:47.656Z,4.65
2022-11-03T21:53:17.558Z,5.45
2022-11-03T21:55:48.270Z,7.80
2022-11-03T21:58:16.832Z,9.43
2022-11-03T22:00:47.146Z,7.55
2022-11-03T22:03:15.737Z,14.18
2022-11-03T22:05:44.300Z,6.97
2022-11-03T22:08:12.844Z,6.00
2022-11-03T22:10:42.554Z,5.47
2022-11-03T22:13:11.702Z,5.65
2022-11-03T22:15:57.754Z,6.00
2022-11-03T22:18:26.146Z,9.90
2022-11-03T22:21:12.085Z,5.15
2022-11-03T22:23:58.066Z,4.57
2022-11-03T22:26:45.515Z,4.70
2022-11-03T22:29:31.461Z,4.90
2022-11-03T22:31:59.777Z,6.20
2022-11-03T22:34:45.505Z,6.25
2022-11-03T22:37:13.811Z,7.18
2022-11-03T22:40:01.811Z,7.72
2022-11-03T22:43:00.785Z,7.30
2022-11-03T22:45:46.556Z,7.82
2022-11-03T22:48:14.864Z,6.80
2022-11-03T22:50:43.138Z,7.28
2022-11-03T22:53:29.016Z,7.55
2022-11-03T22:55:57.322Z,7.53
2022-11-03T22:58:30.613Z,8.00
2022-11-03T23:00:59.273Z,7.97
2022-11-03T23:03:27.579Z,8.00
2022-11-03T23:05:55.892Z,7.25
2022-11-03T23:08:24.387Z,7.80
2022-11-03T23:10:52.745Z,7.03
2022-11-03T23:13:21.233Z,6.28
2022-11-03T23:15:50.868Z,6.40
2022-11-03T23:18:37.047Z,6.47
2022-11-03T23:21:08.125Z,6.43
2022-11-03T23:23:54.619Z,6.38
2022-11-03T23:26:23.314Z,6.10
2022-11-03T23:28:51.643Z,6.65
2022-11-03T23:31:21.350Z,6.65
2022-11-03T23:33:49.737Z,6.60
2022-11-03T23:36:18.897Z,6.72
2022-11-03T23:38:47.230Z,6.40
2022-11-03T23:41:16.888Z,6.72
2022-11-03T23:43:45.829Z,7.32
2022-11-03T23:46:33.588Z,6.43
2022-11-03T23:49:03.438Z,6.07
2022-11-03T23:51:32.781Z,5.72
2022-11-03T23:54:01.450Z,6.45
2022-11-03T23:56:48.303Z,5.65
2022-11-03T23:59:17.509Z,6.20
